Time;durP1;ratioP1;P1;durP2;ratioP2;P2;SDS_P1;SDS_P2;PMS_P1;PMS_P2;Temp;Humidity;BMP_temperature;BMP_pressure;BME280_temperature;BME280_humidity;BME280_pressure;Samples;Min_cycle;Max_cycle;Signal;HPM_P1;HPM_P2
2020/12/21 00:02:25;;;;;;;8.52;7.63;;;;;;;20.94;22.61;95455.34;5076081;28;20075;-49
2020/12/21 00:04:52;;;;;;;9.75;8.23;;;;;;;20.66;23.01;95466.81;5093652;28;20458;-47
2020/12/21 00:07:20;;;;;;;11.00;9.90;;;;;;;20.39;23.48;95460.88;5092905;28;20047;-47
2020/12/21 00:09:47;;;;;;;9.90;8.02;;;;;;;20.52;23.10;95464.41;5093778;28;20052;-49
2020/12/21 00:12:14;;;;;;;9.00;7.40;;;;;;;20.48;23.57;95463.50;5093996;28;20074;-49
2020/12/21 00:14:41;;;;;;;9.18;7.65;;;;;;;20.59;23.19;95462.03;5100003;28;20051;-50
2020/12/21 00:17:08;;;;;;;9.90;8.10;;;;;;;20.52;23.29;95465.19;5092518;28;20052;-49
2020/12/21 00:19:35;;;;;;;8.88;7.55;;;;;;;20.87;22.99;95470.25;5093605;28;20699;-51
2020/12/21 00:22:02;;;;;;;9.13;7.72;;;;;;;20.94;22.92;95475.84;5093959;28;20056;-49
2020/12/21 00:24:29;;;;;;;9.77;8.10;;;;;;;21.00;22.96;95479.84;5093751;28;20043;-52
2020/12/21 00:26:56;;;;;;;10.18;7.90;;;;;;;20.64;23.27;95483.09;5093452;28;20050;-51
2020/12/21 00:29:24;;;;;;;7.40;6.45;;;;;;;20.69;23.25;95479.47;5082156;28;20048;-49
2020/12/21 00:31:51;;;;;;;7.63;6.68;;;;;;;20.63;23.18;95482.31;5073455;28;20060;-49
2020/12/21 00:34:18;;;;;;;10.00;7.43;;;;;;;20.61;23.33;95483.72;5073243;28;20044;-50
2020/12/21 00:36:49;;;;;;;8.07;6.55;;;;;;;20.46;23.40;95486.94;5089352;28;20056;-49
2020/12/21 00:39:17;;;;;;;7.75;6.55;;;;;;;20.61;23.44;95481.06;5094762;28;20114;-48
2020/12/21 00:41:44;;;;;;;7.88;6.60;;;;;;;20.70;23.17;95487.09;5097685;28;20051;-47
2020/12/21 00:44:12;;;;;;;6.97;6.28;;;;;;;20.63;23.14;95486.84;5099713;28;20043;-48
2020/12/21 00:46:39;;;;;;;7.68;6.82;;;;;;;19.98;23.89;95482.75;5102059;28;20055;-50
2020/12/21 00:49:07;;;;;;;9.02;6.97;;;;;;;20.25;23.50;95477.00;5079246;28;20051;-48
2020/12/21 00:51:36;;;;;;;8.05;6.68;;;;;;;20.56;23.28;95471.44;5096468;28;20447;-49
2020/12/21 00:54:04;;;;;;;7.75;6.63;;;;;;;21.04;22.61;95486.06;5079467;28;20340;-53
2020/12/21 00:56:31;;;;;;;8.02;6.35;;;;;;;20.90;22.67;95491.66;5096089;28;20064;-49
2020/12/21 00:58:58;;;;;;;7.75;6.07;;;;;;;20.81;22.38;95482.94;5097012;28;20043;-50
2020/12/21 01:01:28;;;;;;;6.57;5.85;;;;;;;20.57;23.07;95493.44;5096076;28;20072;-50
2020/12/21 01:03:56;;;;;;;6.82;5.47;;;;;;;19.94;23.55;95487.16;5097479;28;20051;-50
2020/12/21 01:06:23;;;;;;;6.63;5.30;;;;;;;19.73;24.01;95486.28;5092104;28;20442;-52
2020/12/21 01:08:50;;;;;;;6.35;5.13;;;;;;;20.39;23.19;95487.41;5096825;28;20082;-48
2020/12/21 01:11:17;;;;;;;6.50;5.70;;;;;;;20.32;22.97;95487.16;5097241;28;20362;-48
2020/12/21 01:13:47;;;;;;;7.05;5.88;;;;;;;20.56;22.66;95494.56;5096947;28;20052;-47
2020/12/21 01:16:14;;;;;;;6.50;5.38;;;;;;;20.02;23.56;95489.75;5105103;28;20369;-50
2020/12/21 01:18:41;;;;;;;7.95;6.00;;;;;;;20.45;23.00;95483.50;5096648;28;20040;-49
2020/12/21 01:21:09;;;;;;;6.80;5.68;;;;;;;20.32;23.15;95490.59;5097262;28;20048;-52
2020/12/21 01:23:36;;;;;;;6.97;5.95;;;;;;;20.31;23.12;95481.06;5097253;28;20059;-48
2020/12/21 01:26:03;;;;;;;7.10;5.53;;;;;;;20.45;22.92;95480.06;5096549;28;20048;-49
2020/12/21 01:28:30;;;;;;;5.90;5.20;;;;;;;20.33;23.08;95478.88;5096530;28;20047;-49
2020/12/21 01:30:57;;;;;;;7.55;5.93;;;;;;;20.67;22.71;95474.47;5096739;28;20082;-49
2020/12/21 01:33:24;;;;;;;7.03;5.70;;;;;;;20.69;22.60;95480.22;5096652;28;20050;-52
2020/12/21 01:35:51;;;;;;;5.90;5.10;;;;;;;20.88;22.45;95477.91;5095636;28;20047;-47
2020/12/21 01:38:18;;;;;;;7.07;5.53;;;;;;;20.80;22.32;95481.41;5096332;28;20051;-49
2020/12/21 01:40:45;;;;;;;8.25;6.07;;;;;;;20.89;22.37;95479.47;5096463;28;20477;-48
2020/12/21 01:43:12;;;;;;;6.68;5.25;;;;;;;21.00;22.25;95479.84;5096516;28;20052;-47
2020/12/21 01:45:39;;;;;;;6.25;5.55;;;;;;;20.30;22.99;95479.50;5090927;28;20039;-49
2020/12/21 01:48:06;;;;;;;7.00;5.72;;;;;;;20.48;22.84;95480.19;5116569;28;20051;-49
2020/12/21 01:50:33;;;;;;;8.80;6.13;;;;;;;20.49;22.65;95476.44;5116115;28;20442;-51
2020/12/21 01:53:01;;;;;;;7.20;5.63;;;;;;;20.68;22.58;95468.06;5116650;28;20358;-47
2020/12/21 01:55:30;;;;;;;6.30;5.20;;;;;;;20.74;22.51;95477.38;5116524;28;20048;-51
2020/12/21 01:57:57;;;;;;;6.70;5.53;;;;;;;20.57;22.97;95466.88;5116251;28;20058;-49
2020/12/21 02:00:24;;;;;;;5.97;5.38;;;;;;;20.65;22.51;95474.00;5098498;28;20039;-48
2020/12/21 02:02:51;;;;;;;6.68;5.53;;;;;;;20.98;22.41;95473.28;5115559;28;20051;-47
2020/12/21 02:05:18;;;;;;;7.18;5.60;;;;;;;20.32;22.80;95479.97;5099249;28;20048;-48
2020/12/21 02:07:46;;;;;;;6.45;5.32;;;;;;;20.50;22.61;95471.91;5096086;28;20044;-48
2020/12/21 02:10:13;;;;;;;6.03;5.10;;;;;;;20.31;23.07;95475.75;5096027;28;20048;-48
2020/12/21 02:12:40;;;;;;;6.55;5.57;;;;;;;20.36;23.00;95471.34;5078042;28;20051;-50
2020/12/21 02:15:07;;;;;;;7.20;5.55;;;;;;;20.52;22.80;95464.41;5105777;28;20044;-49
2020/12/21 02:17:34;;;;;;;8.18;6.13;;;;;;;20.33;23.08;95462.94;5096123;28;20370;-51
2020/12/21 02:20:02;;;;;;;7.68;5.55;;;;;;;20.42;22.99;95456.81;5095840;28;20055;-48
2020/12/21 02:22:30;;;;;;;6.60;5.35;;;;;;;20.11;23.43;95451.81;5095868;28;20052;-49
2020/12/21 02:24:57;;;;;;;6.43;5.70;;;;;;;20.58;22.69;95452.50;5095462;28;20070;-52
2020/12/21 02:27:24;;;;;;;7.25;5.80;;;;;;;20.84;22.39;95449.66;5095303;28;20047;-48
2020/12/21 02:29:52;;;;;;;7.10;6.15;;;;;;;20.81;22.29;95456.38;5095160;28;20458;-48
2020/12/21 02:32:19;;;;;;;7.18;5.88;;;;;;;20.89;22.41;95460.88;5095491;28;20374;-49
2020/12/21 02:34:46;;;;;;;8.00;6.78;;;;;;;20.74;22.55;95465.97;5095444;28;20052;-50
2020/12/21 02:37:13;;;;;;;7.50;6.32;;;;;;;20.60;22.62;95466.25;5095314;28;20059;-49
2020/12/21 02:39:40;;;;;;;7.47;6.40;;;;;;;20.73;22.75;95462.53;5095153;28;20055;-47
2020/12/21 02:42:09;;;;;;;8.93;5.85;;;;;;;20.66;22.49;95443.69;5095497;28;20059;-50
2020/12/21 02:44:36;;;;;;;7.15;5.97;;;;;;;20.74;22.60;95455.34;5100789;28;20047;-49
2020/12/21 02:47:03;;;;;;;7.22;5.93;;;;;;;20.30;23.23;95454.84;5100444;28;20044;-48
2020/12/21 02:49:30;;;;;;;6.68;5.47;;;;;;;21.07;22.39;95452.72;5094967;28;20047;-50
2020/12/21 02:51:57;;;;;;;7.80;6.28;;;;;;;20.85;22.59;95457.31;5095265;28;20056;-50
2020/12/21 02:54:25;;;;;;;7.72;5.47;;;;;;;20.72;22.64;95449.59;5095081;28;20051;-50
2020/12/21 02:56:53;;;;;;;9.90;5.85;;;;;;;20.51;23.07;95452.22;5094803;28;20044;-53
2020/12/21 02:59:20;;;;;;;6.63;5.38;;;;;;;20.54;22.97;95459.53;5094795;28;20050;-49
2020/12/21 03:01:47;;;;;;;5.93;4.97;;;;;;;20.68;22.55;95461.97;5094739;28;20075;-50
2020/12/21 03:04:15;;;;;;;6.70;5.07;;;;;;;20.65;22.64;95463.38;5094418;28;20048;-48
2020/12/21 03:06:42;;;;;;;6.07;5.03;;;;;;;20.61;22.59;95462.47;5094660;28;20362;-46
2020/12/21 03:09:09;;;;;;;7.03;5.28;;;;;;;20.02;23.37;95478.38;5094654;28;20048;-51
2020/12/21 03:11:36;;;;;;;9.38;6.15;;;;;;;20.32;23.09;95472.00;5094657;28;20051;-51
2020/12/21 03:14:04;;;;;;;6.22;5.38;;;;;;;20.46;23.03;95471.00;5095724;28;20048;-50
2020/12/21 03:16:31;;;;;;;6.25;5.43;;;;;;;20.45;23.13;95474.75;5105237;28;20450;-49
2020/12/21 03:18:58;;;;;;;6.05;5.40;;;;;;;20.29;23.02;95477.16;5094486;28;20051;-49
2020/12/21 03:21:25;;;;;;;6.55;5.68;;;;;;;20.31;23.42;95470.44;5094648;28;20048;-48
2020/12/21 03:23:52;;;;;;;7.85;5.90;;;;;;;20.51;22.86;95460.19;5083210;28;20048;-49
2020/12/21 03:26:19;;;;;;;6.25;5.47;;;;;;;20.75;22.86;95457.69;5081495;28;20048;-50
2020/12/21 03:28:46;;;;;;;6.30;5.22;;;;;;;20.39;23.27;95465.41;5094361;28;20056;-46
2020/12/21 03:31:13;;;;;;;7.68;6.35;;;;;;;20.67;22.65;95458.53;5094326;28;20059;-48
2020/12/21 03:33:40;;;;;;;9.13;6.70;;;;;;;20.78;22.72;95465.00;5094345;28;20450;-48
2020/12/21 03:36:07;;;;;;;7.60;5.93;;;;;;;20.92;22.67;95462.88;5094107;28;20504;-49
2020/12/21 03:38:35;;;;;;;8.00;6.15;;;;;;;20.74;22.55;95456.13;5094174;28;20044;-48
2020/12/21 03:41:02;;;;;;;7.15;6.10;;;;;;;20.72;22.58;95460.97;5094204;28;20063;-47
2020/12/21 03:43:29;;;;;;;8.38;6.35;;;;;;;20.30;23.52;95452.97;5094190;28;20048;-51
2020/12/21 03:45:56;;;;;;;7.93;6.25;;;;;;;20.55;22.98;95448.59;5101384;28;20055;-48
2020/12/21 03:48:23;;;;;;;7.03;6.10;;;;;;;20.57;22.94;95450.94;5094013;28;20044;-49
2020/12/21 03:50:50;;;;;;;7.45;6.47;;;;;;;20.61;22.92;95451.84;5094078;28;20058;-49
2020/12/21 03:53:17;;;;;;;8.40;6.38;;;;;;;20.85;22.64;95448.56;5093772;28;20052;-46
2020/12/21 03:55:44;;;;;;;7.80;6.10;;;;;;;20.37;23.20;95446.34;5093786;28;20044;-46
2020/12/21 03:58:11;;;;;;;7.50;6.18;;;;;;;20.42;23.20;95443.53;5093952;28;20445;-48
2020/12/21 04:00:39;;;;;;;7.10;6.10;;;;;;;20.40;23.46;95446.50;5093636;28;20040;-50
2020/12/21 04:03:06;;;;;;;7.18;6.00;;;;;;;20.69;22.86;95458.97;5093979;28;20051;-51
2020/12/21 04:05:33;;;;;;;7.45;6.38;;;;;;;20.53;22.94;95455.31;5093985;28;20047;-50
2020/12/21 04:08:00;;;;;;;8.30;6.55;;;;;;;20.49;23.24;95449.88;5093575;28;20071;-49
2020/12/21 04:10:27;;;;;;;7.95;6.72;;;;;;;20.81;23.04;95456.38;5093852;28;20052;-48
2020/12/21 04:12:54;;;;;;;8.38;6.10;;;;;;;20.46;23.55;95457.72;5093911;28;20051;-48
2020/12/21 04:15:21;;;;;;;7.10;6.07;;;;;;;20.77;22.99;95460.78;5105372;28;20051;-50
2020/12/21 04:17:48;;;;;;;8.98;6.15;;;;;;;20.74;22.62;95456.13;5095510;28;20489;-50
2020/12/21 04:20:15;;;;;;;8.32;6.40;;;;;;;21.10;22.36;95452.09;5094089;28;20055;-48
2020/12/21 04:22:42;;;;;;;9.23;6.68;;;;;;;21.07;22.45;95442.88;5092273;28;20435;-49
2020/12/21 04:25:09;;;;;;;8.60;6.75;;;;;;;21.22;22.18;95449.47;5073382;28;20439;-49
2020/12/21 04:27:36;;;;;;;9.80;6.75;;;;;;;20.91;22.77;95456.00;5089536;28;20055;-49
2020/12/21 04:30:03;;;;;;;8.02;6.75;;;;;;;20.57;23.07;95442.97;5109009;28;20378;-45
2020/12/21 04:32:30;;;;;;;8.18;6.25;;;;;;;20.94;22.29;95444.72;5110414;28;20064;-46
2020/12/21 04:34:57;;;;;;;8.55;6.88;;;;;;;21.03;22.44;95443.84;5112742;28;20438;-49
2020/12/21 04:37:24;;;;;;;7.93;6.40;;;;;;;21.03;22.33;95446.50;5112875;28;20050;-47
2020/12/21 04:39:52;;;;;;;7.93;6.57;;;;;;;20.75;22.68;95447.03;5112592;28;20055;-48
2020/12/21 04:42:23;;;;;;;8.30;6.63;;;;;;;21.02;22.40;95455.59;5112812;28;20047;-47
2020/12/21 04:44:54;;;;;;;7.93;6.38;;;;;;;21.05;22.46;95450.41;5112387;28;20058;-45
2020/12/21 04:47:21;;;;;;;9.38;7.25;;;;;;;20.83;22.98;95448.88;5110671;28;20044;-45
2020/12/21 04:49:48;;;;;;;10.40;7.90;;;;;;;20.90;22.50;95443.81;5112671;28;20051;-44
2020/12/21 04:52:16;;;;;;;10.48;7.55;;;;;;;21.13;22.44;95446.13;5107762;28;20118;-45
2020/12/21 04:54:43;;;;;;;9.00;7.32;;;;;;;20.42;23.39;95438.22;5112673;28;20062;-50
2020/12/21 04:57:10;;;;;;;9.15;7.40;;;;;;;20.94;22.81;95444.72;5111721;28;20039;-47
2020/12/21 04:59:37;;;;;;;9.95;7.90;;;;;;;20.83;22.89;95456.84;5112835;28;20063;-49
2020/12/21 05:02:05;;;;;;;9.70;7.72;;;;;;;20.76;22.97;95453.13;5113122;28;20063;-46
2020/12/21 05:04:32;;;;;;;10.85;8.23;;;;;;;20.87;22.87;95457.75;5113234;28;20365;-47
2020/12/21 05:06:59;;;;;;;11.35;8.15;;;;;;;20.97;22.76;95464.56;5107125;28;20760;-46
2020/12/21 05:09:27;;;;;;;11.63;7.90;;;;;;;21.07;22.63;95458.03;5112450;28;20062;-50
2020/12/21 05:12:05;;;;;;;8.02;6.97;;;;;;;20.54;23.29;95462.19;5112686;28;20051;-47
2020/12/21 05:14:35;;;;;;;9.35;7.57;;;;;;;20.73;23.03;95470.50;5112478;28;20358;-48
2020/12/21 05:17:12;;;;;;;9.65;7.45;;;;;;;20.43;23.88;95469.00;5107762;28;20378;-46
2020/12/21 05:19:40;;;;;;;10.48;7.20;;;;;;;20.72;23.45;95471.63;5107519;28;20048;-46
2020/12/21 05:22:11;;;;;;;10.05;7.85;;;;;;;20.63;23.34;95460.28;5112678;28;20733;-45
2020/12/21 05:24:38;;;;;;;10.25;8.60;;;;;;;20.67;23.02;95461.19;5107563;28;20048;-48
2020/12/21 05:27:16;;;;;;;10.00;8.10;;;;;;;20.94;22.94;95455.34;5112010;28;20052;-51
2020/12/21 05:29:52;;;;;;;9.52;7.80;;;;;;;20.97;22.83;95453.13;5112062;28;20047;-44
2020/12/21 05:32:20;;;;;;;11.93;8.65;;;;;;;21.03;22.86;95462.47;5106324;28;20047;-45
2020/12/21 05:34:48;;;;;;;11.93;8.68;;;;;;;21.09;22.61;95463.84;5116234;28;20052;-47
2020/12/21 05:37:19;;;;;;;11.48;9.05;;;;;;;20.24;23.76;95464.84;5113115;28;20047;-51
2020/12/21 05:39:55;;;;;;;10.77;8.30;;;;;;;20.59;23.37;95456.72;5116187;28;20043;-49
2020/12/21 05:42:23;;;;;;;9.98;8.40;;;;;;;20.90;23.08;95462.41;5111700;28;20047;-44
2020/12/21 05:45:07;;;;;;;11.30;8.35;;;;;;;20.98;23.06;95465.31;5115751;28;20043;-45
2020/12/21 05:47:35;;;;;;;12.27;10.02;;;;;;;21.02;22.99;95466.22;5111997;28;20363;-44
2020/12/21 05:50:05;;;;;;;11.65;10.10;;;;;;;20.46;23.62;95455.84;5115980;28;20054;-45
2020/12/21 05:52:37;;;;;;;12.82;9.85;;;;;;;20.38;23.81;95477.13;5116798;28;20056;-47
2020/12/21 05:55:07;;;;;;;11.10;9.30;;;;;;;20.70;23.30;95476.47;5116667;28;20047;-44
2020/12/21 05:57:35;;;;;;;9.98;8.73;;;;;;;20.57;23.52;95465.00;5112982;28;20048;-45
2020/12/21 06:00:04;;;;;;;8.95;7.60;;;;;;;20.75;23.32;95472.84;5107203;28;20044;-46
2020/12/21 06:02:32;;;;;;;10.25;8.05;;;;;;;20.06;24.24;95476.66;5091293;28;20060;-52
2020/12/21 06:05:05;;;;;;;9.50;8.05;;;;;;;20.17;24.07;95469.09;5095773;28;20458;-45
2020/12/21 06:07:34;;;;;;;10.10;7.78;;;;;;;20.36;23.87;95472.13;5093170;28;20040;-48
2020/12/21 06:10:08;;;;;;;10.60;8.60;;;;;;;20.54;23.64;95462.19;5075046;28;20049;-47
2020/12/21 06:12:55;;;;;;;12.18;8.95;;;;;;;20.19;24.12;95459.72;5075695;28;20067;-43
2020/12/21 06:15:25;;;;;;;10.23;8.43;;;;;;;20.07;24.26;95464.94;5075872;28;20130;-46
2020/12/21 06:17:52;;;;;;;12.95;9.88;;;;;;;19.75;24.73;95462.84;5111286;28;20044;-49
2020/12/21 06:20:19;;;;;;;12.43;9.82;;;;;;;19.51;25.34;95463.38;5115838;28;20352;-47
2020/12/21 06:22:46;;;;;;;11.88;8.93;;;;;;;19.54;25.10;95468.09;5116266;28;20055;-45
2020/12/21 06:25:24;;;;;;;12.20;9.55;;;;;;;20.13;24.46;95462.88;5116089;28;20055;-46
2020/12/21 06:27:51;;;;;;;12.10;8.90;;;;;;;20.24;24.09;95459.53;5112871;28;20082;-47
2020/12/21 06:30:28;;;;;;;11.27;8.88;;;;;;;20.17;24.35;95466.44;5097887;28;20044;-45
2020/12/21 06:33:01;;;;;;;12.43;10.15;;;;;;;20.29;24.49;95467.31;5115851;28;20055;-45
2020/12/21 06:35:28;;;;;;;20.17;13.80;;;;;;;20.48;24.22;95466.16;5114772;28;20055;-46
2020/12/21 06:38:01;;;;;;;16.98;13.27;;;;;;;20.54;24.24;95472.81;5115389;28;20059;-47
2020/12/21 06:40:33;;;;;;;17.48;14.35;;;;;;;19.51;25.48;95474.75;5097928;28;20044;-44
2020/12/21 06:43:11;;;;;;;17.35;14.02;;;;;;;19.85;24.94;95473.16;5115789;28;20117;-45
2020/12/21 06:45:38;;;;;;;17.52;14.00;;;;;;;19.68;25.01;95479.28;5108623;28;20052;-45
2020/12/21 06:48:06;;;;;;;17.30;13.77;;;;;;;19.74;25.35;95474.56;5110727;28;20075;-46
2020/12/21 06:50:33;;;;;;;15.40;13.55;;;;;;;19.71;25.25;95482.06;5072608;28;20055;-47
2020/12/21 06:53:00;;;;;;;33.83;27.02;;;;;;;19.59;25.63;95486.47;5074697;28;20044;-44
2020/12/21 06:55:35;;;;;;;30.52;23.23;;;;;;;19.73;25.58;95480.97;5074650;28;20059;-45
2020/12/21 06:58:02;;;;;;;22.30;17.45;;;;;;;19.91;25.08;95477.94;5089594;28;20388;-44
2020/12/21 07:00:29;;;;;;;24.40;18.38;;;;;;;20.14;24.86;95475.06;5094966;28;20043;-47
2020/12/21 07:02:57;;;;;;;19.77;17.08;;;;;;;19.78;25.13;95478.13;5077137;28;20060;-45
2020/12/21 07:05:24;;;;;;;18.65;14.60;;;;;;;19.88;25.09;95478.59;5077433;28;20055;-48
2020/12/21 07:08:00;;;;;;;20.35;14.40;;;;;;;19.90;24.97;95472.97;5107100;28;20051;-47
2020/12/21 07:10:31;;;;;;;18.02;14.02;;;;;;;19.91;25.31;95471.88;5115138;28;20054;-45
2020/12/21 07:12:59;;;;;;;19.45;14.05;;;;;;;19.90;25.41;95480.94;5115122;28;20555;-46
2020/12/21 07:15:26;;;;;;;17.80;13.63;;;;;;;19.96;25.17;95475.13;5114662;28;20051;-47
2020/12/21 07:17:56;;;;;;;17.38;13.25;;;;;;;20.10;24.83;95480.22;5113620;28;20062;-47
2020/12/21 07:20:23;;;;;;;17.67;13.15;;;;;;;19.99;25.07;95489.63;5115533;28;20047;-45
2020/12/21 07:22:51;;;;;;;18.17;13.13;;;;;;;19.87;25.24;95487.66;5115166;28;20055;-45
2020/12/21 07:25:20;;;;;;;17.63;12.98;;;;;;;20.10;25.09;95496.16;5097017;28;20057;-45
2020/12/21 07:27:47;;;;;;;17.30;13.25;;;;;;;20.20;24.96;95485.16;5114518;28;20385;-45
2020/12/21 07:30:15;;;;;;;21.35;14.43;;;;;;;20.31;24.67;95491.69;5113889;28;20048;-45
2020/12/21 07:32:42;;;;;;;20.10;14.55;;;;;;;20.25;24.82;95492.16;5089120;28;20063;-45
2020/12/21 07:35:09;;;;;;;21.20;15.48;;;;;;;20.27;25.00;95489.97;5074090;28;20052;-47
2020/12/21 07:37:36;;;;;;;18.92;15.15;;;;;;;20.31;24.89;95491.69;5066314;28;20048;-44
2020/12/21 07:40:03;;;;;;;17.80;14.40;;;;;;;19.30;26.26;95495.09;5094369;28;20363;-43
2020/12/21 07:42:32;;;;;;;18.52;15.02;;;;;;;19.48;26.01;95501.91;5094272;28;20044;-44
2020/12/21 07:45:03;;;;;;;23.13;15.10;;;;;;;20.13;25.04;95495.50;5082200;28;20051;-44
2020/12/21 07:47:32;;;;;;;20.75;16.45;;;;;;;19.91;25.04;95493.09;5092549;28;20059;-45
2020/12/21 07:50:01;;;;;;;20.23;15.45;;;;;;;20.26;24.55;95491.84;5092547;28;20086;-44
2020/12/21 07:52:28;;;;;;;19.40;14.57;;;;;;;19.82;25.24;95489.69;5094270;28;20358;-45
2020/12/21 07:54:59;;;;;;;23.30;15.77;;;;;;;19.66;25.54;95498.16;5094189;28;20054;-45
2020/12/21 07:57:30;;;;;;;25.95;16.05;;;;;;;19.90;25.19;95491.53;5093398;28;20629;-44
2020/12/21 08:00:00;;;;;;;19.63;15.02;;;;;;;19.79;25.39;95493.00;5093889;28;20039;-45
2020/12/21 08:02:28;;;;;;;21.63;16.95;;;;;;;19.80;25.38;95497.19;5093872;28;20068;-44
2020/12/21 08:04:55;;;;;;;19.95;15.20;;;;;;;19.94;25.21;95497.75;5094060;28;20119;-44
2020/12/21 08:07:34;;;;;;;20.67;15.25;;;;;;;19.93;25.14;95494.34;5093811;28;20052;-44
2020/12/21 08:10:04;;;;;;;17.92;15.40;;;;;;;20.23;24.66;95499.69;5093718;28;20365;-44
2020/12/21 08:12:32;;;;;;;18.83;15.07;;;;;;;20.16;24.95;95494.88;5094001;28;20405;-45
2020/12/21 08:15:06;;;;;;;19.02;14.73;;;;;;;20.05;24.82;95499.00;5102470;28;20051;-46
2020/12/21 08:17:34;;;;;;;22.85;15.93;;;;;;;19.47;25.92;95505.66;5113077;28;20052;-47
2020/12/21 08:20:14;;;;;;;21.52;15.88;;;;;;;19.90;25.65;95496.84;5096656;28;20446;-47
2020/12/21 08:22:43;;;;;;;22.83;18.65;;;;;;;20.46;24.80;95489.59;5093766;28;20056;-46
2020/12/21 08:25:12;;;;;;;27.45;19.75;;;;;;;20.14;24.86;95489.09;5093773;28;20043;-45
2020/12/21 08:27:43;;;;;;;24.48;19.83;;;;;;;20.41;24.67;95489.78;5093675;28;20043;-45
2020/12/21 08:30:16;;;;;;;24.58;19.17;;;;;;;20.37;24.94;95488.84;5093533;28;20063;-46
2020/12/21 08:32:43;;;;;;;23.15;17.85;;;;;;;20.51;24.74;95506.13;5093704;28;20060;-46
2020/12/21 08:35:23;;;;;;;22.05;17.65;;;;;;;20.28;25.06;95492.31;5093753;28;20063;-45
2020/12/21 08:37:50;;;;;;;32.45;19.02;;;;;;;19.24;26.35;95496.31;5093579;28;20051;-45
2020/12/21 08:40:21;;;;;;;21.77;17.83;;;;;;;19.91;25.64;95493.09;5093069;28;20051;-46
2020/12/21 08:42:49;;;;;;;22.55;17.38;;;;;;;20.06;25.59;95489.16;5093941;28;20332;-48
2020/12/21 08:45:21;;;;;;;19.83;16.80;;;;;;;18.95;26.75;95489.78;5104968;28;20130;-49
2020/12/21 08:47:49;;;;;;;21.35;17.10;;;;;;;19.31;26.32;95486.03;5113954;28;20055;-47
2020/12/21 08:50:16;;;;;;;24.05;17.92;;;;;;;19.32;26.61;95490.25;5095575;28;20059;-45
2020/12/21 08:52:47;;;;;;;24.08;18.10;;;;;;;19.26;27.67;95480.91;5093736;28;20056;-46
2020/12/21 08:55:14;;;;;;;21.75;17.88;;;;;;;19.11;26.87;95474.19;5092876;28;20446;-46
2020/12/21 08:57:41;;;;;;;25.70;18.20;;;;;;;18.60;28.11;95477.56;5092142;28;20054;-46
2020/12/21 09:00:08;;;;;;;23.52;17.80;;;;;;;18.95;28.06;95489.00;5089578;28;20059;-44
2020/12/21 09:02:40;;;;;;;24.77;17.35;;;;;;;18.92;28.21;95479.03;5097093;28;20068;-45
2020/12/21 09:05:07;;;;;;;21.25;17.40;;;;;;;19.15;26.59;95466.41;5097136;28;20056;-44
2020/12/21 09:07:35;;;;;;;25.42;18.15;;;;;;;19.55;27.52;95481.03;5097250;28;20052;-45
2020/12/21 09:10:03;;;;;;;23.98;18.63;;;;;;;19.74;26.63;95467.38;5096779;28;20048;-45
2020/12/21 09:12:30;;;;;;;24.17;18.08;;;;;;;19.67;26.38;95467.88;5097283;28;20056;-45
2020/12/21 09:14:58;;;;;;;22.00;18.27;;;;;;;19.52;26.49;95471.03;5105315;28;20488;-45
2020/12/21 09:17:25;;;;;;;24.30;18.90;;;;;;;20.01;25.81;95469.63;5117356;28;20051;-46
2020/12/21 09:19:52;;;;;;;22.25;18.10;;;;;;;20.85;24.41;95469.81;5103482;28;20494;-46
2020/12/21 09:22:22;;;;;;;24.08;18.35;;;;;;;20.86;24.25;95469.50;5096864;28;20051;-48
2020/12/21 09:24:49;;;;;;;25.17;18.17;;;;;;;20.86;24.02;95460.75;5097470;28;20070;-47
2020/12/21 09:27:16;;;;;;;22.52;17.40;;;;;;;21.04;23.64;95464.03;5096932;28;20047;-48
2020/12/21 09:29:44;;;;;;;22.88;17.80;;;;;;;21.01;23.73;95459.34;5085289;28;20387;-45
2020/12/21 09:32:14;;;;;;;22.08;17.27;;;;;;;20.64;24.59;95461.84;5076217;28;20056;-47
2020/12/21 09:34:44;;;;;;;20.92;17.33;;;;;;;20.74;24.22;95450.81;5074959;28;20407;-49
2020/12/21 09:37:14;;;;;;;19.48;16.63;;;;;;;20.81;23.71;95448.41;5076302;28;20048;-46
2020/12/21 09:39:41;;;;;;;25.98;17.05;;;;;;;20.94;23.65;95455.34;5087667;28;20043;-47
2020/12/21 09:42:09;;;;;;;19.65;16.48;;;;;;;20.71;23.69;95451.47;5096617;28;20059;-46
2020/12/21 09:44:36;;;;;;;20.33;15.05;;;;;;;21.02;23.11;95448.41;5102165;28;20063;-47
2020/12/21 09:47:03;;;;;;;17.20;15.32;;;;;;;21.08;22.49;95444.47;5116986;28;20043;-47
2020/12/21 09:49:30;;;;;;;19.13;16.15;;;;;;;20.42;23.72;95448.84;5106907;28;20043;-49
2020/12/21 09:51:57;;;;;;;17.98;16.05;;;;;;;21.12;22.66;95447.25;5096299;28;20056;-45
2020/12/21 09:54:24;;;;;;;20.27;17.17;;;;;;;20.83;23.12;95448.09;5096514;28;20047;-46
2020/12/21 09:56:51;;;;;;;19.40;16.83;;;;;;;20.83;23.18;95437.47;5096646;28;20044;-44
2020/12/21 09:59:21;;;;;;;18.88;16.77;;;;;;;20.83;23.18;95440.91;5095182;28;20048;-45
2020/12/21 10:01:50;;;;;;;19.30;17.10;;;;;;;21.17;22.67;95441.72;5099986;28;20470;-45
2020/12/21 10:04:23;;;;;;;21.67;17.40;;;;;;;20.53;23.45;95436.72;5116805;28;20047;-46
2020/12/21 10:06:50;;;;;;;23.30;17.27;;;;;;;20.83;23.55;95448.88;5116374;28;20051;-47
2020/12/21 10:09:20;;;;;;;20.17;17.08;;;;;;;20.82;23.20;95436.69;5116214;28;20499;-46
2020/12/21 10:11:53;;;;;;;22.55;17.73;;;;;;;20.99;23.21;95441.06;5115921;28;20063;-45
2020/12/21 10:14:23;;;;;;;23.67;18.55;;;;;;;20.77;23.67;95434.22;5116014;28;20052;-44
2020/12/21 10:16:54;;;;;;;20.67;17.27;;;;;;;20.73;23.37;95422.69;5116305;28;20397;-46
2020/12/21 10:19:21;;;;;;;26.67;18.55;;;;;;;21.00;23.23;95423.25;5108709;28;20048;-45
2020/12/21 10:21:48;;;;;;;21.95;18.45;;;;;;;21.62;22.30;95427.69;5115961;28;20077;-47
2020/12/21 10:24:16;;;;;;;144.30;113.35;;;;;;;21.01;22.85;95424.81;5116282;28;20339;-45
2020/12/21 10:26:43;;;;;;;56.20;46.47;;;;;;;21.11;22.63;95413.78;5116151;28;20082;-45
2020/12/21 10:29:10;;;;;;;22.92;19.70;;;;;;;20.82;22.88;95412.78;5115668;28;20047;-46
2020/12/21 10:31:37;;;;;;;23.65;19.95;;;;;;;20.89;22.85;95410.38;5116388;28;20047;-45
2020/12/21 10:34:04;;;;;;;24.85;18.77;;;;;;;21.03;23.00;95417.28;5116159;28;20054;-46
2020/12/21 10:36:31;;;;;;;20.60;18.40;;;;;;;21.01;22.91;95414.16;5097473;28;20752;-48
2020/12/21 10:38:59;;;;;;;25.10;19.42;;;;;;;20.86;23.61;95413.69;5115354;28;20062;-45
2020/12/21 10:41:31;;;;;;;24.52;20.60;;;;;;;20.97;23.46;95405.28;5114986;28;20043;-48
2020/12/21 10:43:59;;;;;;;25.73;22.35;;;;;;;21.00;23.51;95402.75;5115606;28;20125;-46
2020/12/21 10:46:26;;;;;;;26.25;21.90;;;;;;;21.03;23.57;95388.81;5102548;28;20044;-47
2020/12/21 10:48:56;;;;;;;26.63;21.55;;;;;;;21.21;22.79;95392.88;5095172;28;20051;-45
2020/12/21 10:51:31;;;;;;;28.05;21.48;;;;;;;21.40;22.76;95403.03;5115533;28;20058;-46
2020/12/21 10:53:58;;;;;;;26.65;22.08;;;;;;;21.25;22.88;95406.31;5116037;28;20039;-46
2020/12/21 10:56:29;;;;;;;27.88;22.23;;;;;;;20.89;23.85;95410.38;5115562;28;20055;-46
2020/12/21 10:58:56;;;;;;;27.20;22.77;;;;;;;21.00;23.27;95409.97;5115034;28;20058;-46
2020/12/21 11:01:26;;;;;;;32.17;24.55;;;;;;;21.05;23.57;95396.47;5115376;28;20134;-48
2020/12/21 11:03:53;;;;;;;26.70;22.27;;;;;;;21.21;23.12;95405.38;5115685;28;20054;-46
2020/12/21 11:06:26;;;;;;;25.95;23.13;;;;;;;21.04;23.42;95410.84;5115488;28;20047;-46
2020/12/21 11:08:54;;;;;;;26.00;21.98;;;;;;;21.11;23.47;95411.13;5115136;28;20062;-45
2020/12/21 11:11:26;;;;;;;27.95;23.33;;;;;;;21.08;23.39;95411.75;5115311;28;20052;-45
2020/12/21 11:13:56;;;;;;;33.05;25.10;;;;;;;20.96;23.38;95417.03;5115113;28;20047;-45
2020/12/21 11:16:23;;;;;;;31.73;26.58;;;;;;;21.32;23.10;95411.84;5076102;28;20048;-46
2020/12/21 11:18:50;;;;;;;33.83;28.00;;;;;;;21.27;23.26;95404.09;5094211;28;20052;-47
2020/12/21 11:21:17;;;;;;;30.38;26.05;;;;;;;21.18;23.42;95411.34;5094682;28;20439;-46
2020/12/21 11:23:44;;;;;;;33.67;27.42;;;;;;;21.15;23.00;95412.78;5114211;28;20047;-45
2020/12/21 11:26:18;;;;;;;33.50;27.98;;;;;;;21.36;22.80;95412.78;5115012;28;20079;-46
2020/12/21 11:28:46;;;;;;;38.47;29.88;;;;;;;20.83;23.20;95411.69;5112577;28;20047;-43
2020/12/21 11:31:19;;;;;;;35.03;29.27;;;;;;;20.79;23.39;95409.97;5113418;28;20059;-44
2020/12/21 11:33:46;;;;;;;;;;;;;;;20.87;23.88;95395.84;5114192;28;20044;-44